sensor_id;sensor_type;location;lat;lon;timestamp;P1;durP1;ratioP1;P2;durP2;ratioP2
74291;SDS011;62687;55.738;37.516;2022-11-15T00:01:49;1.15;;;0.30;;
74291;SDS011;62687;55.738;37.516;2022-11-15T00:04:33;2.88;;;0.40;;
74291;SDS011;62687;55.738;37.516;2022-11-15T00:07:17;1.80;;;0.30;;
74291;SDS011;62687;55.738;37.516;2022-11-15T00:10:01;4.20;;;0.60;;
74291;SDS011;62687;55.738;37.516;2022-11-15T00:12:45;1.55;;;0.43;;
74291;SDS011;62687;55.738;37.516;2022-11-15T00:15:29;2.47;;;0.50;;
74291;SDS011;62687;55.738;37.516;2022-11-15T00:18:13;1.27;;;0.43;;
74291;SDS011;62687;55.738;37.516;2022-11-15T00:21:06;6.47;;;0.60;;
74291;SDS011;62687;55.738;37.516;2022-11-15T00:23:51;3.15;;;0.55;;
74291;SDS011;62687;55.738;37.516;2022-11-15T00:26:35;3.72;;;0.45;;
74291;SDS011;62687;55.738;37.516;2022-11-15T00:29:19;2.33;;;0.50;;
74291;SDS011;62687;55.738;37.516;2022-11-15T00:32:04;2.45;;;0.50;;
74291;SDS011;62687;55.738;37.516;2022-11-15T00:34:49;3.42;;;0.32;;
74291;SDS011;62687;55.738;37.516;2022-11-15T00:37:33;1.60;;;0.20;;
74291;SDS011;62687;55.738;37.516;2022-11-15T00:40:16;1.00;;;0.35;;
74291;SDS011;62687;55.738;37.516;2022-11-15T00:43:00;3.28;;;0.45;;
74291;SDS011;62687;55.738;37.516;2022-11-15T00:45:44;3.10;;;0.35;;
74291;SDS011;62687;55.738;37.516;2022-11-15T00:48:28;2.13;;;0.43;;
74291;SDS011;62687;55.738;37.516;2022-11-15T00:51:13;1.73;;;0.38;;
74291;SDS011;62687;55.738;37.516;2022-11-15T00:53:57;2.25;;;0.30;;
74291;SDS011;62687;55.738;37.516;2022-11-15T00:56:41;1.45;;;0.40;;
74291;SDS011;62687;55.738;37.516;2022-11-15T00:59:25;1.40;;;0.20;;
74291;SDS011;62687;55.738;37.516;2022-11-15T01:02:09;2.60;;;0.30;;
74291;SDS011;62687;55.738;37.516;2022-11-15T01:04:53;2.38;;;0.40;;
74291;SDS011;62687;55.738;37.516;2022-11-15T01:07:37;4.07;;;0.70;;
74291;SDS011;62687;55.738;37.516;2022-11-15T01:10:22;1.40;;;0.20;;
74291;SDS011;62687;55.738;37.516;2022-11-15T01:13:07;2.40;;;0.25;;
74291;SDS011;62687;55.738;37.516;2022-11-15T01:15:51;3.83;;;0.75;;
74291;SDS011;62687;55.738;37.516;2022-11-15T01:18:35;3.38;;;0.50;;
74291;SDS011;62687;55.738;37.516;2022-11-15T01:21:20;4.97;;;0.90;;
74291;SDS011;62687;55.738;37.516;2022-11-15T01:24:04;3.60;;;0.40;;
74291;SDS011;62687;55.738;37.516;2022-11-15T01:26:49;6.10;;;0.68;;
74291;SDS011;62687;55.738;37.516;2022-11-15T01:29:33;2.08;;;0.40;;
74291;SDS011;62687;55.738;37.516;2022-11-15T01:32:17;4.03;;;0.60;;
74291;SDS011;62687;55.738;37.516;2022-11-15T01:35:01;2.03;;;0.47;;
74291;SDS011;62687;55.738;37.516;2022-11-15T01:37:46;2.08;;;0.30;;
74291;SDS011;62687;55.738;37.516;2022-11-15T01:40:30;1.95;;;0.70;;
74291;SDS011;62687;55.738;37.516;2022-11-15T01:51:55;3.40;;;0.35;;
74291;SDS011;62687;55.738;37.516;2022-11-15T01:57:25;2.72;;;0.40;;
74291;SDS011;62687;55.738;37.516;2022-11-15T02:00:10;3.83;;;0.40;;
74291;SDS011;62687;55.738;37.516;2022-11-15T02:02:55;1.13;;;0.10;;
74291;SDS011;62687;55.738;37.516;2022-11-15T02:05:39;1.23;;;0.30;;
74291;SDS011;62687;55.738;37.516;2022-11-15T02:08:25;1.55;;;0.32;;
74291;SDS011;62687;55.738;37.516;2022-11-15T02:11:10;1.50;;;0.20;;
74291;SDS011;62687;55.738;37.516;2022-11-15T02:13:54;1.33;;;0.32;;
74291;SDS011;62687;55.738;37.516;2022-11-15T02:34:28;0.93;;;0.20;;
74291;SDS011;62687;55.738;37.516;2022-11-15T02:43:09;3.13;;;0.20;;
74291;SDS011;62687;55.738;37.516;2022-11-15T02:52:33;3.25;;;0.35;;
74291;SDS011;62687;55.738;37.516;2022-11-15T02:55:27;7.28;;;0.68;;
74291;SDS011;62687;55.738;37.516;2022-11-15T02:58:31;1.98;;;0.50;;
74291;SDS011;62687;55.738;37.516;2022-11-15T03:01:56;3.55;;;0.52;;
74291;SDS011;62687;55.738;37.516;2022-11-15T03:10:30;3.70;;;0.60;;
74291;SDS011;62687;55.738;37.516;2022-11-15T03:13:26;5.70;;;0.50;;
74291;SDS011;62687;55.738;37.516;2022-11-15T03:16:15;3.40;;;0.52;;
74291;SDS011;62687;55.738;37.516;2022-11-15T03:19:14;2.13;;;0.47;;
74291;SDS011;62687;55.738;37.516;2022-11-15T03:22:10;3.65;;;0.50;;
74291;SDS011;62687;55.738;37.516;2022-11-15T03:24:58;5.40;;;0.70;;
74291;SDS011;62687;55.738;37.516;2022-11-15T03:27:47;2.63;;;0.70;;
74291;SDS011;62687;55.738;37.516;2022-11-15T03:30:36;3.95;;;0.40;;
74291;SDS011;62687;55.738;37.516;2022-11-15T03:33:23;4.40;;;0.50;;
74291;SDS011;62687;55.738;37.516;2022-11-15T03:36:07;2.70;;;0.47;;
74291;SDS011;62687;55.738;37.516;2022-11-15T03:38:53;2.30;;;0.40;;
74291;SDS011;62687;55.738;37.516;2022-11-15T03:51:06;4.40;;;0.68;;
74291;SDS011;62687;55.738;37.516;2022-11-15T03:53:51;2.63;;;0.47;;
74291;SDS011;62687;55.738;37.516;2022-11-15T03:56:35;5.80;;;1.00;;
74291;SDS011;62687;55.738;37.516;2022-11-15T03:59:19;6.90;;;0.60;;
74291;SDS011;62687;55.738;37.516;2022-11-15T04:02:03;3.30;;;0.55;;
74291;SDS011;62687;55.738;37.516;2022-11-15T04:04:47;4.60;;;0.70;;
74291;SDS011;62687;55.738;37.516;2022-11-15T04:07:31;3.58;;;0.60;;
74291;SDS011;62687;55.738;37.516;2022-11-15T04:10:15;5.28;;;0.80;;
74291;SDS011;62687;55.738;37.516;2022-11-15T04:13:01;6.05;;;0.68;;
74291;SDS011;62687;55.738;37.516;2022-11-15T04:15:46;7.35;;;1.35;;
74291;SDS011;62687;55.738;37.516;2022-11-15T04:18:30;2.83;;;0.70;;
74291;SDS011;62687;55.738;37.516;2022-11-15T04:21:14;2.13;;;0.50;;
74291;SDS011;62687;55.738;37.516;2022-11-15T04:24:17;4.05;;;0.50;;
74291;SDS011;62687;55.738;37.516;2022-11-15T04:27:01;7.78;;;0.90;;
74291;SDS011;62687;55.738;37.516;2022-11-15T04:29:45;2.65;;;0.47;;
74291;SDS011;62687;55.738;37.516;2022-11-15T04:32:29;2.08;;;0.60;;
74291;SDS011;62687;55.738;37.516;2022-11-15T04:35:13;3.40;;;0.40;;
74291;SDS011;62687;55.738;37.516;2022-11-15T04:37:57;4.47;;;0.60;;
74291;SDS011;62687;55.738;37.516;2022-11-15T04:40:42;10.70;;;0.70;;
74291;SDS011;62687;55.738;37.516;2022-11-15T04:43:26;2.88;;;0.40;;
74291;SDS011;62687;55.738;37.516;2022-11-15T04:46:11;8.68;;;0.70;;
74291;SDS011;62687;55.738;37.516;2022-11-15T04:48:55;3.63;;;0.43;;
74291;SDS011;62687;55.738;37.516;2022-11-15T04:51:39;1.58;;;0.43;;
74291;SDS011;62687;55.738;37.516;2022-11-15T04:54:24;4.15;;;0.80;;
74291;SDS011;62687;55.738;37.516;2022-11-15T04:57:08;3.78;;;0.73;;
74291;SDS011;62687;55.738;37.516;2022-11-15T04:59:52;3.00;;;0.80;;
74291;SDS011;62687;55.738;37.516;2022-11-15T05:02:35;2.50;;;0.47;;
74291;SDS011;62687;55.738;37.516;2022-11-15T05:05:38;2.33;;;0.60;;
74291;SDS011;62687;55.738;37.516;2022-11-15T05:08:22;5.15;;;1.40;;
74291;SDS011;62687;55.738;37.516;2022-11-15T05:11:06;2.95;;;0.70;;
74291;SDS011;62687;55.738;37.516;2022-11-15T05:13:50;3.75;;;1.10;;
74291;SDS011;62687;55.738;37.516;2022-11-15T05:16:34;7.07;;;1.05;;
74291;SDS011;62687;55.738;37.516;2022-11-15T05:19:19;3.88;;;0.90;;
74291;SDS011;62687;55.738;37.516;2022-11-15T05:22:03;5.18;;;0.90;;
74291;SDS011;62687;55.738;37.516;2022-11-15T05:24:47;2.78;;;0.45;;
74291;SDS011;62687;55.738;37.516;2022-11-15T05:27:32;1.63;;;0.47;;
74291;SDS011;62687;55.738;37.516;2022-11-15T05:33:01;2.33;;;0.70;;
74291;SDS011;62687;55.738;37.516;2022-11-15T05:35:46;4.45;;;0.70;;
74291;SDS011;62687;55.738;37.516;2022-11-15T05:38:38;5.32;;;0.80;;
74291;SDS011;62687;55.738;37.516;2022-11-15T05:41:25;5.57;;;1.17;;
74291;SDS011;62687;55.738;37.516;2022-11-15T05:44:18;2.35;;;0.50;;
74291;SDS011;62687;55.738;37.516;2022-11-15T05:47:05;10.02;;;0.90;;
74291;SDS011;62687;55.738;37.516;2022-11-15T05:49:52;11.40;;;1.08;;
74291;SDS011;62687;55.738;37.516;2022-11-15T05:52:37;4.32;;;1.17;;
74291;SDS011;62687;55.738;37.516;2022-11-15T05:55:22;4.15;;;0.63;;
74291;SDS011;62687;55.738;37.516;2022-11-15T05:58:06;2.50;;;0.65;;
74291;SDS011;62687;55.738;37.516;2022-11-15T06:00:51;6.00;;;0.93;;
74291;SDS011;62687;55.738;37.516;2022-11-15T06:03:35;4.25;;;1.25;;
74291;SDS011;62687;55.738;37.516;2022-11-15T06:06:19;8.02;;;1.50;;
74291;SDS011;62687;55.738;37.516;2022-11-15T06:09:03;5.85;;;0.95;;
74291;SDS011;62687;55.738;37.516;2022-11-15T06:11:47;1.70;;;0.63;;
74291;SDS011;62687;55.738;37.516;2022-11-15T06:14:32;3.90;;;0.90;;
74291;SDS011;62687;55.738;37.516;2022-11-15T06:17:15;3.30;;;0.90;;
74291;SDS011;62687;55.738;37.516;2022-11-15T06:19:59;3.72;;;0.82;;
74291;SDS011;62687;55.738;37.516;2022-11-15T06:22:43;2.85;;;0.88;;
74291;SDS011;62687;55.738;37.516;2022-11-15T06:25:28;6.30;;;1.13;;
74291;SDS011;62687;55.738;37.516;2022-11-15T06:28:12;7.60;;;0.95;;
74291;SDS011;62687;55.738;37.516;2022-11-15T06:31:04;10.00;;;1.00;;
74291;SDS011;62687;55.738;37.516;2022-11-15T06:33:49;4.93;;;0.60;;
74291;SDS011;62687;55.738;37.516;2022-11-15T06:36:36;6.88;;;0.82;;
74291;SDS011;62687;55.738;37.516;2022-11-15T06:39:21;7.07;;;0.93;;
74291;SDS011;62687;55.738;37.516;2022-11-15T06:42:04;4.20;;;1.17;;
74291;SDS011;62687;55.738;37.516;2022-11-15T06:44:48;8.20;;;2.00;;
74291;SDS011;62687;55.738;37.516;2022-11-15T06:47:32;3.90;;;0.85;;
74291;SDS011;62687;55.738;37.516;2022-11-15T06:50:16;4.63;;;1.20;;
74291;SDS011;62687;55.738;37.516;2022-11-15T06:53:01;9.30;;;1.50;;
74291;SDS011;62687;55.738;37.516;2022-11-15T06:55:46;3.33;;;0.90;;
74291;SDS011;62687;55.738;37.516;2022-11-15T06:58:31;16.83;;;2.45;;
74291;SDS011;62687;55.738;37.516;2022-11-15T07:01:15;8.23;;;1.20;;
74291;SDS011;62687;55.738;37.516;2022-11-15T07:03:59;6.28;;;1.00;;
74291;SDS011;62687;55.738;37.516;2022-11-15T07:06:45;15.02;;;1.77;;
74291;SDS011;62687;55.738;37.516;2022-11-15T07:09:30;7.93;;;1.10;;
74291;SDS011;62687;55.738;37.516;2022-11-15T07:12:14;5.00;;;1.05;;
74291;SDS011;62687;55.738;37.516;2022-11-15T07:14:58;4.60;;;1.20;;
74291;SDS011;62687;55.738;37.516;2022-11-15T07:17:42;3.25;;;0.98;;
74291;SDS011;62687;55.738;37.516;2022-11-15T07:20:26;10.20;;;1.27;;
74291;SDS011;62687;55.738;37.516;2022-11-15T07:23:10;8.60;;;1.33;;
74291;SDS011;62687;55.738;37.516;2022-11-15T07:25:56;7.05;;;1.10;;
74291;SDS011;62687;55.738;37.516;2022-11-15T07:28:41;11.07;;;1.58;;
74291;SDS011;62687;55.738;37.516;2022-11-15T07:31:25;4.65;;;1.17;;
74291;SDS011;62687;55.738;37.516;2022-11-15T07:34:09;5.82;;;1.25;;
74291;SDS011;62687;55.738;37.516;2022-11-15T07:36:53;5.25;;;1.33;;
74291;SDS011;62687;55.738;37.516;2022-11-15T07:39:37;10.27;;;1.33;;
74291;SDS011;62687;55.738;37.516;2022-11-15T07:42:21;3.67;;;0.80;;
74291;SDS011;62687;55.738;37.516;2022-11-15T07:45:24;14.52;;;1.40;;
74291;SDS011;62687;55.738;37.516;2022-11-15T07:48:11;17.05;;;1.30;;
74291;SDS011;62687;55.738;37.516;2022-11-15T07:50:55;4.20;;;0.88;;
74291;SDS011;62687;55.738;37.516;2022-11-15T07:53:39;11.60;;;1.80;;
74291;SDS011;62687;55.738;37.516;2022-11-15T07:56:23;4.07;;;0.77;;
74291;SDS011;62687;55.738;37.516;2022-11-15T07:59:07;12.85;;;1.50;;
74291;SDS011;62687;55.738;37.516;2022-11-15T08:01:51;14.32;;;1.40;;
74291;SDS011;62687;55.738;37.516;2022-11-15T08:04:35;4.13;;;1.35;;
74291;SDS011;62687;55.738;37.516;2022-11-15T08:07:19;7.78;;;1.10;;
74291;SDS011;62687;55.738;37.516;2022-11-15T08:10:03;5.53;;;1.20;;
74291;SDS011;62687;55.738;37.516;2022-11-15T08:12:56;11.32;;;1.60;;
74291;SDS011;62687;55.738;37.516;2022-11-15T08:15:44;10.02;;;2.42;;
74291;SDS011;62687;55.738;37.516;2022-11-15T08:18:28;8.32;;;1.25;;
74291;SDS011;62687;55.738;37.516;2022-11-15T08:21:12;12.60;;;1.50;;
74291;SDS011;62687;55.738;37.516;2022-11-15T08:24:01;11.65;;;1.40;;
74291;SDS011;62687;55.738;37.516;2022-11-15T08:26:45;11.35;;;1.35;;
74291;SDS011;62687;55.738;37.516;2022-11-15T08:29:29;5.85;;;1.50;;
74291;SDS011;62687;55.738;37.516;2022-11-15T08:32:12;10.48;;;1.63;;
74291;SDS011;62687;55.738;37.516;2022-11-15T08:34:57;18.23;;;1.60;;
74291;SDS011;62687;55.738;37.516;2022-11-15T08:37:40;11.32;;;2.00;;
74291;SDS011;62687;55.738;37.516;2022-11-15T08:40:24;9.05;;;1.30;;
74291;SDS011;62687;55.738;37.516;2022-11-15T08:43:10;9.50;;;2.10;;
74291;SDS011;62687;55.738;37.516;2022-11-15T08:45:57;10.82;;;1.80;;
74291;SDS011;62687;55.738;37.516;2022-11-15T08:48:42;10.73;;;1.33;;
74291;SDS011;62687;55.738;37.516;2022-11-15T08:51:26;12.52;;;1.70;;
74291;SDS011;62687;55.738;37.516;2022-11-15T08:54:10;11.35;;;2.85;;
74291;SDS011;62687;55.738;37.516;2022-11-15T08:56:54;12.40;;;2.00;;
74291;SDS011;62687;55.738;37.516;2022-11-15T08:59:38;11.88;;;1.85;;
74291;SDS011;62687;55.738;37.516;2022-11-15T09:02:22;9.02;;;1.63;;
74291;SDS011;62687;55.738;37.516;2022-11-15T09:05:06;11.23;;;1.85;;
74291;SDS011;62687;55.738;37.516;2022-11-15T09:07:54;9.10;;;2.03;;
74291;SDS011;62687;55.738;37.516;2022-11-15T09:10:38;12.70;;;2.28;;
74291;SDS011;62687;55.738;37.516;2022-11-15T09:13:22;9.75;;;2.40;;
74291;SDS011;62687;55.738;37.516;2022-11-15T09:16:06;14.32;;;2.10;;
74291;SDS011;62687;55.738;37.516;2022-11-15T09:18:50;9.07;;;2.10;;
74291;SDS011;62687;55.738;37.516;2022-11-15T09:21:34;15.55;;;2.00;;
74291;SDS011;62687;55.738;37.516;2022-11-15T09:24:18;12.65;;;2.00;;
74291;SDS011;62687;55.738;37.516;2022-11-15T09:27:02;5.78;;;1.50;;
74291;SDS011;62687;55.738;37.516;2022-11-15T09:29:46;7.95;;;1.15;;
74291;SDS011;62687;55.738;37.516;2022-11-15T09:32:30;8.23;;;1.98;;
74291;SDS011;62687;55.738;37.516;2022-11-15T09:35:14;5.95;;;1.50;;
74291;SDS011;62687;55.738;37.516;2022-11-15T09:37:58;10.20;;;1.23;;
74291;SDS011;62687;55.738;37.516;2022-11-15T09:40:42;7.53;;;1.15;;
74291;SDS011;62687;55.738;37.516;2022-11-15T09:49:28;5.50;;;1.42;;
74291;SDS011;62687;55.738;37.516;2022-11-15T09:52:13;6.30;;;1.20;;
74291;SDS011;62687;55.738;37.516;2022-11-15T09:54:57;5.70;;;1.50;;
74291;SDS011;62687;55.738;37.516;2022-11-15T09:57:46;13.90;;;2.08;;
74291;SDS011;62687;55.738;37.516;2022-11-15T10:00:38;11.10;;;1.58;;
74291;SDS011;62687;55.738;37.516;2022-11-15T10:03:28;5.60;;;1.10;;
74291;SDS011;62687;55.738;37.516;2022-11-15T10:06:21;8.43;;;1.80;;
74291;SDS011;62687;55.738;37.516;2022-11-15T10:12:07;9.77;;;1.75;;
74291;SDS011;62687;55.738;37.516;2022-11-15T10:14:58;8.20;;;1.30;;
74291;SDS011;62687;55.738;37.516;2022-11-15T10:20:54;3.85;;;1.10;;
74291;SDS011;62687;55.738;37.516;2022-11-15T10:23:46;16.23;;;2.22;;
74291;SDS011;62687;55.738;37.516;2022-11-15T10:29:19;11.13;;;1.92;;
74291;SDS011;62687;55.738;37.516;2022-11-15T10:32:04;3.58;;;1.10;;
74291;SDS011;62687;55.738;37.516;2022-11-15T10:34:49;12.63;;;1.85;;
74291;SDS011;62687;55.738;37.516;2022-11-15T10:37:34;9.45;;;1.27;;
74291;SDS011;62687;55.738;37.516;2022-11-15T10:40:20;6.25;;;1.70;;
74291;SDS011;62687;55.738;37.516;2022-11-15T10:45:53;4.95;;;1.17;;
74291;SDS011;62687;55.738;37.516;2022-11-15T10:48:37;12.88;;;1.52;;
74291;SDS011;62687;55.738;37.516;2022-11-15T10:51:25;8.70;;;1.50;;
74291;SDS011;62687;55.738;37.516;2022-11-15T10:54:12;11.52;;;2.00;;
74291;SDS011;62687;55.738;37.516;2022-11-15T10:56:59;8.68;;;1.40;;
74291;SDS011;62687;55.738;37.516;2022-11-15T10:59:49;16.73;;;2.13;;
74291;SDS011;62687;55.738;37.516;2022-11-15T11:05:40;6.25;;;1.52;;
74291;SDS011;62687;55.738;37.516;2022-11-15T11:08:24;10.23;;;1.92;;
74291;SDS011;62687;55.738;37.516;2022-11-15T11:11:10;17.17;;;2.10;;
74291;SDS011;62687;55.738;37.516;2022-11-15T11:13:53;9.98;;;2.05;;
74291;SDS011;62687;55.738;37.516;2022-11-15T11:16:41;8.57;;;2.30;;
74291;SDS011;62687;55.738;37.516;2022-11-15T11:19:44;14.00;;;1.80;;
74291;SDS011;62687;55.738;37.516;2022-11-15T11:25:35;11.40;;;1.75;;
74291;SDS011;62687;55.738;37.516;2022-11-15T11:32:17;9.52;;;1.80;;
74291;SDS011;62687;55.738;37.516;2022-11-15T11:41:24;8.57;;;1.83;;
74291;SDS011;62687;55.738;37.516;2022-11-15T11:47:23;17.92;;;2.00;;
74291;SDS011;62687;55.738;37.516;2022-11-15T11:53:04;7.38;;;1.80;;
74291;SDS011;62687;55.738;37.516;2022-11-15T11:55:56;8.70;;;2.22;;
74291;SDS011;62687;55.738;37.516;2022-11-15T11:58:45;5.25;;;1.35;;
74291;SDS011;62687;55.738;37.516;2022-11-15T12:01:37;8.85;;;2.17;;
74291;SDS011;62687;55.738;37.516;2022-11-15T12:04:38;10.40;;;2.25;;
74291;SDS011;62687;55.738;37.516;2022-11-15T12:07:29;5.82;;;1.50;;
74291;SDS011;62687;55.738;37.516;2022-11-15T12:10:19;7.30;;;1.77;;
74291;SDS011;62687;55.738;37.516;2022-11-15T12:13:13;10.05;;;1.80;;
74291;SDS011;62687;55.738;37.516;2022-11-15T12:19:00;11.30;;;2.20;;
74291;SDS011;62687;55.738;37.516;2022-11-15T12:21:52;5.95;;;1.40;;
74291;SDS011;62687;55.738;37.516;2022-11-15T12:24:53;9.95;;;1.67;;
74291;SDS011;62687;55.738;37.516;2022-11-15T12:27:53;3.38;;;1.40;;
74291;SDS011;62687;55.738;37.516;2022-11-15T12:30:45;7.13;;;1.63;;
74291;SDS011;62687;55.738;37.516;2022-11-15T12:33:41;11.95;;;2.17;;
74291;SDS011;62687;55.738;37.516;2022-11-15T12:36:33;5.50;;;1.65;;
74291;SDS011;62687;55.738;37.516;2022-11-15T12:39:21;7.90;;;1.70;;
74291;SDS011;62687;55.738;37.516;2022-11-15T12:42:57;9.30;;;2.22;;
74291;SDS011;62687;55.738;37.516;2022-11-15T12:45:45;8.63;;;2.00;;
74291;SDS011;62687;55.738;37.516;2022-11-15T12:48:45;7.13;;;1.83;;
74291;SDS011;62687;55.738;37.516;2022-11-15T12:57:35;6.65;;;2.17;;
74291;SDS011;62687;55.738;37.516;2022-11-15T13:03:17;7.30;;;2.20;;
74291;SDS011;62687;55.738;37.516;2022-11-15T13:06:08;5.93;;;1.65;;
74291;SDS011;62687;55.738;37.516;2022-11-15T13:18:31;5.95;;;1.60;;
74291;SDS011;62687;55.738;37.516;2022-11-15T13:21:19;6.95;;;2.55;;
74291;SDS011;62687;55.738;37.516;2022-11-15T13:24:24;9.75;;;1.90;;
74291;SDS011;62687;55.738;37.516;2022-11-15T13:27:15;8.68;;;2.00;;
74291;SDS011;62687;55.738;37.516;2022-11-15T13:30:03;5.15;;;1.88;;
74291;SDS011;62687;55.738;37.516;2022-11-15T13:32:48;6.43;;;1.58;;
74291;SDS011;62687;55.738;37.516;2022-11-15T13:35:33;7.65;;;1.60;;
74291;SDS011;62687;55.738;37.516;2022-11-15T13:41:17;11.75;;;1.85;;
74291;SDS011;62687;55.738;37.516;2022-11-15T13:44:03;8.25;;;1.75;;
74291;SDS011;62687;55.738;37.516;2022-11-15T13:46:47;4.15;;;1.80;;
74291;SDS011;62687;55.738;37.516;2022-11-15T13:49:32;11.82;;;2.95;;
74291;SDS011;62687;55.738;37.516;2022-11-15T13:52:18;8.25;;;1.90;;
74291;SDS011;62687;55.738;37.516;2022-11-15T13:55:05;7.97;;;2.03;;
74291;SDS011;62687;55.738;37.516;2022-11-15T13:57:58;7.32;;;1.55;;
74291;SDS011;62687;55.738;37.516;2022-11-15T14:00:49;6.88;;;1.83;;
74291;SDS011;62687;55.738;37.516;2022-11-15T14:03:56;5.60;;;2.10;;
74291;SDS011;62687;55.738;37.516;2022-11-15T14:06:53;7.18;;;1.80;;
74291;SDS011;62687;55.738;37.516;2022-11-15T14:09:39;7.57;;;2.13;;
74291;SDS011;62687;55.738;37.516;2022-11-15T14:12:26;11.38;;;2.33;;
74291;SDS011;62687;55.738;37.516;2022-11-15T14:15:18;10.88;;;2.85;;
74291;SDS011;62687;55.738;37.516;2022-11-15T14:18:38;7.97;;;1.83;;
74291;SDS011;62687;55.738;37.516;2022-11-15T14:21:32;7.82;;;2.50;;
74291;SDS011;62687;55.738;37.516;2022-11-15T14:24:20;13.38;;;2.40;;
74291;SDS011;62687;55.738;37.516;2022-11-15T14:30:03;10.43;;;2.40;;
74291;SDS011;62687;55.738;37.516;2022-11-15T14:32:49;8.20;;;2.75;;
74291;SDS011;62687;55.738;37.516;2022-11-15T14:35:34;10.32;;;2.50;;
74291;SDS011;62687;55.738;37.516;2022-11-15T14:38:25;9.52;;;2.85;;
74291;SDS011;62687;55.738;37.516;2022-11-15T14:41:23;13.02;;;3.55;;
74291;SDS011;62687;55.738;37.516;2022-11-15T14:44:10;10.68;;;3.75;;
74291;SDS011;62687;55.738;37.516;2022-11-15T14:46:54;12.85;;;4.00;;
74291;SDS011;62687;55.738;37.516;2022-11-15T14:49:38;12.98;;;4.10;;
74291;SDS011;62687;55.738;37.516;2022-11-15T14:52:27;10.02;;;3.00;;
74291;SDS011;62687;55.738;37.516;2022-11-15T14:55:18;12.77;;;3.08;;
74291;SDS011;62687;55.738;37.516;2022-11-15T14:58:05;9.07;;;2.08;;
74291;SDS011;62687;55.738;37.516;2022-11-15T15:00:53;10.35;;;2.63;;
74291;SDS011;62687;55.738;37.516;2022-11-15T15:03:37;7.90;;;2.50;;
74291;SDS011;62687;55.738;37.516;2022-11-15T15:06:22;8.73;;;3.05;;
74291;SDS011;62687;55.738;37.516;2022-11-15T15:09:06;14.65;;;4.10;;
74291;SDS011;62687;55.738;37.516;2022-11-15T15:11:50;10.32;;;3.90;;
74291;SDS011;62687;55.738;37.516;2022-11-15T15:14:35;12.52;;;3.40;;
74291;SDS011;62687;55.738;37.516;2022-11-15T15:17:19;10.60;;;3.42;;
74291;SDS011;62687;55.738;37.516;2022-11-15T15:20:03;9.15;;;3.08;;
74291;SDS011;62687;55.738;37.516;2022-11-15T15:22:48;7.88;;;2.80;;
74291;SDS011;62687;55.738;37.516;2022-11-15T15:25:33;8.05;;;2.45;;
74291;SDS011;62687;55.738;37.516;2022-11-15T15:28:18;10.93;;;2.70;;
74291;SDS011;62687;55.738;37.516;2022-11-15T15:31:02;8.50;;;2.53;;
74291;SDS011;62687;55.738;37.516;2022-11-15T15:33:46;11.93;;;3.55;;
74291;SDS011;62687;55.738;37.516;2022-11-15T15:36:30;8.88;;;2.72;;
74291;SDS011;62687;55.738;37.516;2022-11-15T15:39:14;9.23;;;3.22;;
74291;SDS011;62687;55.738;37.516;2022-11-15T15:41:59;14.25;;;3.13;;
74291;SDS011;62687;55.738;37.516;2022-11-15T15:44:42;11.55;;;3.20;;
74291;SDS011;62687;55.738;37.516;2022-11-15T15:47:27;11.70;;;3.72;;
74291;SDS011;62687;55.738;37.516;2022-11-15T15:50:32;15.13;;;4.22;;
74291;SDS011;62687;55.738;37.516;2022-11-15T15:53:18;12.55;;;4.03;;
74291;SDS011;62687;55.738;37.516;2022-11-15T15:56:03;15.65;;;4.63;;
74291;SDS011;62687;55.738;37.516;2022-11-15T15:58:48;12.35;;;4.68;;
74291;SDS011;62687;55.738;37.516;2022-11-15T16:01:32;10.32;;;4.15;;
74291;SDS011;62687;55.738;37.516;2022-11-15T16:04:16;14.88;;;4.43;;
74291;SDS011;62687;55.738;37.516;2022-11-15T16:07:00;11.15;;;4.47;;
74291;SDS011;62687;55.738;37.516;2022-11-15T16:09:44;10.77;;;3.72;;
74291;SDS011;62687;55.738;37.516;2022-11-15T16:12:44;8.85;;;3.53;;
74291;SDS011;62687;55.738;37.516;2022-11-15T16:15:30;10.05;;;4.35;;
74291;SDS011;62687;55.738;37.516;2022-11-15T16:18:16;7.97;;;3.55;;
74291;SDS011;62687;55.738;37.516;2022-11-15T16:21:01;9.35;;;3.40;;
74291;SDS011;62687;55.738;37.516;2022-11-15T16:23:45;7.88;;;3.13;;
74291;SDS011;62687;55.738;37.516;2022-11-15T16:26:26;6.28;;;3.10;;
74291;SDS011;62687;55.738;37.516;2022-11-15T16:29:12;8.48;;;2.95;;
74291;SDS011;62687;55.738;37.516;2022-11-15T16:31:56;7.30;;;3.30;;
74291;SDS011;62687;55.738;37.516;2022-11-15T16:34:40;7.82;;;3.67;;
74291;SDS011;62687;55.738;37.516;2022-11-15T16:37:24;8.80;;;3.55;;
74291;SDS011;62687;55.738;37.516;2022-11-15T16:43:13;6.13;;;3.17;;
74291;SDS011;62687;55.738;37.516;2022-11-15T16:45:57;9.63;;;3.20;;
74291;SDS011;62687;55.738;37.516;2022-11-15T16:48:48;8.43;;;3.55;;
74291;SDS011;62687;55.738;37.516;2022-11-15T16:51:32;9.13;;;3.08;;
74291;SDS011;62687;55.738;37.516;2022-11-15T16:54:16;7.72;;;3.03;;
74291;SDS011;62687;55.738;37.516;2022-11-15T16:57:01;8.65;;;2.90;;
74291;SDS011;62687;55.738;37.516;2022-11-15T16:59:45;7.78;;;3.47;;
74291;SDS011;62687;55.738;37.516;2022-11-15T17:02:29;7.97;;;3.10;;
74291;SDS011;62687;55.738;37.516;2022-11-15T17:05:14;7.68;;;2.65;;
74291;SDS011;62687;55.738;37.516;2022-11-15T17:08:00;7.05;;;3.05;;
74291;SDS011;62687;55.738;37.516;2022-11-15T17:10:44;5.45;;;2.60;;
74291;SDS011;62687;55.738;37.516;2022-11-15T17:13:28;5.43;;;2.03;;
74291;SDS011;62687;55.738;37.516;2022-11-15T17:16:15;6.47;;;2.38;;
74291;SDS011;62687;55.738;37.516;2022-11-15T17:19:00;7.88;;;2.30;;
74291;SDS011;62687;55.738;37.516;2022-11-15T17:21:44;8.30;;;2.90;;
74291;SDS011;62687;55.738;37.516;2022-11-15T17:27:14;9.48;;;2.72;;
74291;SDS011;62687;55.738;37.516;2022-11-15T17:29:58;7.55;;;2.65;;
74291;SDS011;62687;55.738;37.516;2022-11-15T17:32:42;7.03;;;2.60;;
74291;SDS011;62687;55.738;37.516;2022-11-15T17:35:26;3.85;;;2.13;;
74291;SDS011;62687;55.738;37.516;2022-11-15T17:38:10;8.48;;;2.60;;
74291;SDS011;62687;55.738;37.516;2022-11-15T17:43:44;5.75;;;2.10;;
74291;SDS011;62687;55.738;37.516;2022-11-15T17:46:29;5.80;;;1.95;;
74291;SDS011;62687;55.738;37.516;2022-11-15T17:49:14;6.07;;;2.72;;
74291;SDS011;62687;55.738;37.516;2022-11-15T17:52:00;6.53;;;2.78;;
74291;SDS011;62687;55.738;37.516;2022-11-15T17:54:44;3.88;;;2.10;;
74291;SDS011;62687;55.738;37.516;2022-11-15T17:57:28;5.68;;;2.30;;
74291;SDS011;62687;55.738;37.516;2022-11-15T18:02:58;5.55;;;2.05;;
74291;SDS011;62687;55.738;37.516;2022-11-15T18:05:43;5.07;;;2.40;;
74291;SDS011;62687;55.738;37.516;2022-11-15T18:08:27;7.00;;;2.72;;
74291;SDS011;62687;55.738;37.516;2022-11-15T18:11:12;6.25;;;3.08;;
74291;SDS011;62687;55.738;37.516;2022-11-15T18:14:06;7.00;;;2.60;;
74291;SDS011;62687;55.738;37.516;2022-11-15T18:16:51;7.10;;;2.70;;
74291;SDS011;62687;55.738;37.516;2022-11-15T18:19:37;5.80;;;2.63;;
74291;SDS011;62687;55.738;37.516;2022-11-15T18:22:22;9.90;;;3.63;;
74291;SDS011;62687;55.738;37.516;2022-11-15T18:25:06;7.05;;;3.40;;
74291;SDS011;62687;55.738;37.516;2022-11-15T18:27:50;9.90;;;3.60;;
74291;SDS011;62687;55.738;37.516;2022-11-15T18:30:37;6.90;;;3.38;;
74291;SDS011;62687;55.738;37.516;2022-11-15T18:33:22;8.85;;;4.00;;
74291;SDS011;62687;55.738;37.516;2022-11-15T18:36:06;11.10;;;4.35;;
74291;SDS011;62687;55.738;37.516;2022-11-15T18:38:53;10.85;;;4.70;;
74291;SDS011;62687;55.738;37.516;2022-11-15T18:44:22;11.60;;;4.80;;
74291;SDS011;62687;55.738;37.516;2022-11-15T18:47:06;9.52;;;4.00;;